sensor_id;sensor_type;location;lat;lon;timestamp;P1;durP1;ratioP1;P2;durP2;ratioP2
11283;SDS011;5698;47.332;11.180;2023-11-19T00:01:27;0.70;;;0.70;;
11283;SDS011;5698;47.332;11.180;2023-11-19T00:03:55;1.93;;;0.70;;
11283;SDS011;5698;47.332;11.180;2023-11-19T00:06:22;0.60;;;0.60;;
11283;SDS011;5698;47.332;11.180;2023-11-19T00:08:49;0.53;;;0.53;;
11283;SDS011;5698;47.332;11.180;2023-11-19T00:11:16;0.90;;;0.80;;
11283;SDS011;5698;47.332;11.180;2023-11-19T00:13:43;0.50;;;0.50;;
11283;SDS011;5698;47.332;11.180;2023-11-19T00:16:10;1.27;;;0.70;;
11283;SDS011;5698;47.332;11.180;2023-11-19T00:18:37;0.70;;;0.70;;
11283;SDS011;5698;47.332;11.180;2023-11-19T00:21:06;0.60;;;0.60;;
11283;SDS011;5698;47.332;11.180;2023-11-19T00:23:35;0.50;;;0.50;;
11283;SDS011;5698;47.332;11.180;2023-11-19T00:26:02;0.60;;;0.60;;
11283;SDS011;5698;47.332;11.180;2023-11-19T00:28:31;0.50;;;0.50;;
11283;SDS011;5698;47.332;11.180;2023-11-19T00:30:58;0.60;;;0.60;;
11283;SDS011;5698;47.332;11.180;2023-11-19T00:33:25;0.60;;;0.60;;
11283;SDS011;5698;47.332;11.180;2023-11-19T00:35:52;0.70;;;0.70;;
11283;SDS011;5698;47.332;11.180;2023-11-19T00:38:20;0.67;;;0.67;;
11283;SDS011;5698;47.332;11.180;2023-11-19T00:40:47;0.70;;;0.50;;
11283;SDS011;5698;47.332;11.180;2023-11-19T00:43:14;0.50;;;0.50;;
11283;SDS011;5698;47.332;11.180;2023-11-19T00:45:41;0.50;;;0.50;;
11283;SDS011;5698;47.332;11.180;2023-11-19T00:48:08;0.60;;;0.60;;
11283;SDS011;5698;47.332;11.180;2023-11-19T00:50:35;0.70;;;0.70;;
11283;SDS011;5698;47.332;11.180;2023-11-19T00:53:02;0.80;;;0.80;;
11283;SDS011;5698;47.332;11.180;2023-11-19T00:55:31;0.57;;;0.57;;
11283;SDS011;5698;47.332;11.180;2023-11-19T00:57:58;0.50;;;0.50;;
11283;SDS011;5698;47.332;11.180;2023-11-19T01:00:24;0.67;;;0.67;;
11283;SDS011;5698;47.332;11.180;2023-11-19T01:02:52;0.57;;;0.57;;
11283;SDS011;5698;47.332;11.180;2023-11-19T01:05:19;0.70;;;0.70;;
11283;SDS011;5698;47.332;11.180;2023-11-19T01:07:49;0.40;;;0.40;;
11283;SDS011;5698;47.332;11.180;2023-11-19T01:10:18;0.60;;;0.60;;
11283;SDS011;5698;47.332;11.180;2023-11-19T01:12:47;0.70;;;0.63;;
11283;SDS011;5698;47.332;11.180;2023-11-19T01:15:14;0.70;;;0.70;;
11283;SDS011;5698;47.332;11.180;2023-11-19T01:17:43;0.57;;;0.57;;
11283;SDS011;5698;47.332;11.180;2023-11-19T01:20:10;0.50;;;0.50;;
11283;SDS011;5698;47.332;11.180;2023-11-19T01:22:38;0.73;;;0.60;;
11283;SDS011;5698;47.332;11.180;2023-11-19T01:25:06;0.83;;;0.70;;
11283;SDS011;5698;47.332;11.180;2023-11-19T01:27:33;0.43;;;0.43;;
11283;SDS011;5698;47.332;11.180;2023-11-19T01:30:02;0.80;;;0.80;;
11283;SDS011;5698;47.332;11.180;2023-11-19T01:32:31;0.60;;;0.60;;
11283;SDS011;5698;47.332;11.180;2023-11-19T01:34:58;0.50;;;0.50;;
11283;SDS011;5698;47.332;11.180;2023-11-19T01:37:25;0.60;;;0.60;;
11283;SDS011;5698;47.332;11.180;2023-11-19T01:39:52;0.57;;;0.57;;
11283;SDS011;5698;47.332;11.180;2023-11-19T01:42:18;1.10;;;0.60;;
11283;SDS011;5698;47.332;11.180;2023-11-19T01:44:54;0.80;;;0.70;;
11283;SDS011;5698;47.332;11.180;2023-11-19T01:47:25;0.50;;;0.50;;
11283;SDS011;5698;47.332;11.180;2023-11-19T01:49:52;0.60;;;0.60;;
11283;SDS011;5698;47.332;11.180;2023-11-19T01:52:20;0.60;;;0.60;;
11283;SDS011;5698;47.332;11.180;2023-11-19T01:54:47;0.70;;;0.60;;
11283;SDS011;5698;47.332;11.180;2023-11-19T01:57:14;1.23;;;0.63;;
11283;SDS011;5698;47.332;11.180;2023-11-19T01:59:42;0.53;;;0.50;;
11283;SDS011;5698;47.332;11.180;2023-11-19T02:02:09;0.77;;;0.70;;
11283;SDS011;5698;47.332;11.180;2023-11-19T02:04:39;0.70;;;0.60;;
11283;SDS011;5698;47.332;11.180;2023-11-19T02:07:06;0.60;;;0.60;;
11283;SDS011;5698;47.332;11.180;2023-11-19T02:09:34;0.50;;;0.50;;
11283;SDS011;5698;47.332;11.180;2023-11-19T02:12:01;0.60;;;0.60;;
11283;SDS011;5698;47.332;11.180;2023-11-19T02:14:28;0.70;;;0.60;;
11283;SDS011;5698;47.332;11.180;2023-11-19T02:16:56;0.57;;;0.57;;
11283;SDS011;5698;47.332;11.180;2023-11-19T02:19:22;0.70;;;0.53;;
11283;SDS011;5698;47.332;11.180;2023-11-19T02:21:51;0.50;;;0.50;;
11283;SDS011;5698;47.332;11.180;2023-11-19T02:24:18;0.43;;;0.43;;
11283;SDS011;5698;47.332;11.180;2023-11-19T02:26:51;0.60;;;0.60;;
11283;SDS011;5698;47.332;11.180;2023-11-19T02:29:26;0.40;;;0.40;;
11283;SDS011;5698;47.332;11.180;2023-11-19T02:31:53;1.30;;;0.60;;
11283;SDS011;5698;47.332;11.180;2023-11-19T02:34:21;0.40;;;0.40;;
11283;SDS011;5698;47.332;11.180;2023-11-19T02:36:48;0.50;;;0.50;;
11283;SDS011;5698;47.332;11.180;2023-11-19T02:39:15;1.13;;;0.50;;
11283;SDS011;5698;47.332;11.180;2023-11-19T02:41:46;0.50;;;0.50;;
11283;SDS011;5698;47.332;11.180;2023-11-19T02:44:16;0.50;;;0.50;;
11283;SDS011;5698;47.332;11.180;2023-11-19T02:46:44;0.77;;;0.50;;
11283;SDS011;5698;47.332;11.180;2023-11-19T02:49:13;0.57;;;0.57;;
11283;SDS011;5698;47.332;11.180;2023-11-19T02:51:40;0.73;;;0.60;;
11283;SDS011;5698;47.332;11.180;2023-11-19T02:54:07;0.50;;;0.50;;
11283;SDS011;5698;47.332;11.180;2023-11-19T02:56:35;0.60;;;0.57;;
11283;SDS011;5698;47.332;11.180;2023-11-19T02:59:04;0.50;;;0.50;;
11283;SDS011;5698;47.332;11.180;2023-11-19T03:01:39;1.70;;;0.70;;
11283;SDS011;5698;47.332;11.180;2023-11-19T03:04:10;0.60;;;0.60;;
11283;SDS011;5698;47.332;11.180;2023-11-19T03:06:42;0.50;;;0.50;;
11283;SDS011;5698;47.332;11.180;2023-11-19T03:09:09;0.50;;;0.50;;
11283;SDS011;5698;47.332;11.180;2023-11-19T03:11:35;0.50;;;0.50;;
11283;SDS011;5698;47.332;11.180;2023-11-19T03:14:03;0.50;;;0.50;;
11283;SDS011;5698;47.332;11.180;2023-11-19T03:16:30;0.50;;;0.50;;
11283;SDS011;5698;47.332;11.180;2023-11-19T03:18:57;0.60;;;0.60;;
11283;SDS011;5698;47.332;11.180;2023-11-19T03:21:28;0.37;;;0.37;;
11283;SDS011;5698;47.332;11.180;2023-11-19T03:23:56;0.43;;;0.43;;
11283;SDS011;5698;47.332;11.180;2023-11-19T03:26:25;0.40;;;0.40;;
11283;SDS011;5698;47.332;11.180;2023-11-19T03:28:52;0.40;;;0.40;;
11283;SDS011;5698;47.332;11.180;2023-11-19T03:31:19;0.40;;;0.40;;
11283;SDS011;5698;47.332;11.180;2023-11-19T03:33:46;0.83;;;0.50;;
11283;SDS011;5698;47.332;11.180;2023-11-19T03:36:13;0.40;;;0.40;;
11283;SDS011;5698;47.332;11.180;2023-11-19T03:38:41;1.07;;;0.40;;
11283;SDS011;5698;47.332;11.180;2023-11-19T03:41:11;0.70;;;0.70;;
11283;SDS011;5698;47.332;11.180;2023-11-19T03:43:38;0.50;;;0.50;;
11283;SDS011;5698;47.332;11.180;2023-11-19T03:46:15;0.50;;;0.50;;
11283;SDS011;5698;47.332;11.180;2023-11-19T03:48:43;0.60;;;0.50;;
11283;SDS011;5698;47.332;11.180;2023-11-19T03:51:11;0.53;;;0.50;;
11283;SDS011;5698;47.332;11.180;2023-11-19T03:53:41;0.30;;;0.30;;
11283;SDS011;5698;47.332;11.180;2023-11-19T03:56:08;0.60;;;0.60;;
11283;SDS011;5698;47.332;11.180;2023-11-19T03:58:34;0.50;;;0.50;;
11283;SDS011;5698;47.332;11.180;2023-11-19T04:01:03;0.40;;;0.40;;
11283;SDS011;5698;47.332;11.180;2023-11-19T04:03:30;0.40;;;0.40;;
11283;SDS011;5698;47.332;11.180;2023-11-19T04:05:57;0.50;;;0.50;;
11283;SDS011;5698;47.332;11.180;2023-11-19T04:08:24;0.30;;;0.30;;
11283;SDS011;5698;47.332;11.180;2023-11-19T04:10:52;0.57;;;0.57;;
11283;SDS011;5698;47.332;11.180;2023-11-19T04:13:19;0.50;;;0.40;;
11283;SDS011;5698;47.332;11.180;2023-11-19T04:15:48;0.60;;;0.50;;
11283;SDS011;5698;47.332;11.180;2023-11-19T04:18:15;0.43;;;0.43;;
11283;SDS011;5698;47.332;11.180;2023-11-19T04:20:42;0.40;;;0.37;;
11283;SDS011;5698;47.332;11.180;2023-11-19T04:23:09;2.40;;;0.50;;
11283;SDS011;5698;47.332;11.180;2023-11-19T04:25:36;0.40;;;0.40;;
11283;SDS011;5698;47.332;11.180;2023-11-19T04:28:04;0.50;;;0.50;;
11283;SDS011;5698;47.332;11.180;2023-11-19T04:30:31;0.60;;;0.50;;
11283;SDS011;5698;47.332;11.180;2023-11-19T04:32:58;0.50;;;0.50;;
11283;SDS011;5698;47.332;11.180;2023-11-19T04:35:25;0.40;;;0.40;;
11283;SDS011;5698;47.332;11.180;2023-11-19T04:37:52;0.40;;;0.40;;
11283;SDS011;5698;47.332;11.180;2023-11-19T04:40:22;0.50;;;0.47;;
11283;SDS011;5698;47.332;11.180;2023-11-19T04:42:49;0.40;;;0.40;;
11283;SDS011;5698;47.332;11.180;2023-11-19T04:45:17;0.40;;;0.40;;
11283;SDS011;5698;47.332;11.180;2023-11-19T04:48:00;0.50;;;0.50;;
11283;SDS011;5698;47.332;11.180;2023-11-19T04:50:27;0.40;;;0.40;;
11283;SDS011;5698;47.332;11.180;2023-11-19T04:52:54;0.40;;;0.40;;
11283;SDS011;5698;47.332;11.180;2023-11-19T04:55:21;0.47;;;0.47;;
11283;SDS011;5698;47.332;11.180;2023-11-19T04:57:48;0.40;;;0.40;;
11283;SDS011;5698;47.332;11.180;2023-11-19T05:00:15;0.40;;;0.40;;
11283;SDS011;5698;47.332;11.180;2023-11-19T05:02:42;0.40;;;0.40;;
11283;SDS011;5698;47.332;11.180;2023-11-19T05:05:10;0.50;;;0.40;;
11283;SDS011;5698;47.332;11.180;2023-11-19T05:07:38;0.50;;;0.50;;
11283;SDS011;5698;47.332;11.180;2023-11-19T05:10:05;0.50;;;0.50;;
11283;SDS011;5698;47.332;11.180;2023-11-19T05:12:33;0.40;;;0.40;;
11283;SDS011;5698;47.332;11.180;2023-11-19T05:15:00;0.40;;;0.40;;
11283;SDS011;5698;47.332;11.180;2023-11-19T05:17:26;0.30;;;0.30;;
11283;SDS011;5698;47.332;11.180;2023-11-19T05:19:53;0.40;;;0.40;;
11283;SDS011;5698;47.332;11.180;2023-11-19T05:22:22;0.50;;;0.43;;
11283;SDS011;5698;47.332;11.180;2023-11-19T05:24:49;0.80;;;0.50;;
11283;SDS011;5698;47.332;11.180;2023-11-19T05:27:15;0.43;;;0.43;;
11283;SDS011;5698;47.332;11.180;2023-11-19T05:29:42;0.30;;;0.30;;
11283;SDS011;5698;47.332;11.180;2023-11-19T05:32:09;0.40;;;0.40;;
11283;SDS011;5698;47.332;11.180;2023-11-19T05:34:36;0.40;;;0.40;;
11283;SDS011;5698;47.332;11.180;2023-11-19T05:37:03;0.50;;;0.50;;
11283;SDS011;5698;47.332;11.180;2023-11-19T05:39:32;0.40;;;0.40;;
11283;SDS011;5698;47.332;11.180;2023-11-19T05:41:59;0.50;;;0.50;;
11283;SDS011;5698;47.332;11.180;2023-11-19T05:44:26;0.50;;;0.50;;
11283;SDS011;5698;47.332;11.180;2023-11-19T05:46:53;0.63;;;0.50;;
11283;SDS011;5698;47.332;11.180;2023-11-19T05:49:20;1.03;;;0.60;;
11283;SDS011;5698;47.332;11.180;2023-11-19T05:51:47;1.30;;;0.53;;
11283;SDS011;5698;47.332;11.180;2023-11-19T05:54:14;0.50;;;0.50;;
11283;SDS011;5698;47.332;11.180;2023-11-19T05:56:46;0.40;;;0.40;;
11283;SDS011;5698;47.332;11.180;2023-11-19T05:59:14;0.40;;;0.40;;
11283;SDS011;5698;47.332;11.180;2023-11-19T06:01:42;0.50;;;0.50;;
11283;SDS011;5698;47.332;11.180;2023-11-19T06:04:10;0.40;;;0.40;;
11283;SDS011;5698;47.332;11.180;2023-11-19T06:06:37;2.00;;;0.63;;
11283;SDS011;5698;47.332;11.180;2023-11-19T06:09:04;0.40;;;0.40;;
11283;SDS011;5698;47.332;11.180;2023-11-19T06:11:32;0.50;;;0.50;;
11283;SDS011;5698;47.332;11.180;2023-11-19T06:14:02;0.50;;;0.40;;
11283;SDS011;5698;47.332;11.180;2023-11-19T06:16:30;0.30;;;0.30;;
11283;SDS011;5698;47.332;11.180;2023-11-19T06:18:57;0.40;;;0.40;;
11283;SDS011;5698;47.332;11.180;2023-11-19T06:21:24;0.67;;;0.50;;
11283;SDS011;5698;47.332;11.180;2023-11-19T06:23:51;0.30;;;0.30;;
11283;SDS011;5698;47.332;11.180;2023-11-19T06:26:19;0.33;;;0.33;;
11283;SDS011;5698;47.332;11.180;2023-11-19T06:28:47;0.40;;;0.40;;
11283;SDS011;5698;47.332;11.180;2023-11-19T06:31:15;0.37;;;0.37;;
11283;SDS011;5698;47.332;11.180;2023-11-19T06:33:42;0.40;;;0.33;;
11283;SDS011;5698;47.332;11.180;2023-11-19T06:36:09;0.40;;;0.40;;
11283;SDS011;5698;47.332;11.180;2023-11-19T06:38:36;0.40;;;0.40;;
11283;SDS011;5698;47.332;11.180;2023-11-19T06:41:06;0.63;;;0.50;;
11283;SDS011;5698;47.332;11.180;2023-11-19T06:43:34;0.40;;;0.40;;
11283;SDS011;5698;47.332;11.180;2023-11-19T06:46:01;0.30;;;0.30;;
11283;SDS011;5698;47.332;11.180;2023-11-19T06:48:32;0.30;;;0.30;;
11283;SDS011;5698;47.332;11.180;2023-11-19T06:50:59;0.40;;;0.40;;
11283;SDS011;5698;47.332;11.180;2023-11-19T06:53:26;0.30;;;0.30;;
11283;SDS011;5698;47.332;11.180;2023-11-19T06:55:54;0.40;;;0.40;;
11283;SDS011;5698;47.332;11.180;2023-11-19T06:58:22;0.40;;;0.40;;
11283;SDS011;5698;47.332;11.180;2023-11-19T07:00:48;0.83;;;0.83;;
11283;SDS011;5698;47.332;11.180;2023-11-19T07:03:16;1.20;;;1.10;;
11283;SDS011;5698;47.332;11.180;2023-11-19T07:05:44;1.40;;;1.30;;
11283;SDS011;5698;47.332;11.180;2023-11-19T07:08:11;0.70;;;0.70;;
11283;SDS011;5698;47.332;11.180;2023-11-19T07:10:38;0.30;;;0.30;;
11283;SDS011;5698;47.332;11.180;2023-11-19T07:13:05;0.40;;;0.40;;
11283;SDS011;5698;47.332;11.180;2023-11-19T07:15:32;0.50;;;0.30;;
11283;SDS011;5698;47.332;11.180;2023-11-19T07:17:59;0.30;;;0.30;;
11283;SDS011;5698;47.332;11.180;2023-11-19T07:20:26;0.23;;;0.23;;
11283;SDS011;5698;47.332;11.180;2023-11-19T07:22:54;0.40;;;0.40;;
11283;SDS011;5698;47.332;11.180;2023-11-19T07:25:22;1.17;;;1.17;;
11283;SDS011;5698;47.332;11.180;2023-11-19T07:27:49;0.57;;;0.50;;
11283;SDS011;5698;47.332;11.180;2023-11-19T07:30:17;0.30;;;0.30;;
11283;SDS011;5698;47.332;11.180;2023-11-19T07:32:44;0.30;;;0.30;;
11283;SDS011;5698;47.332;11.180;2023-11-19T07:35:11;0.70;;;0.30;;
11283;SDS011;5698;47.332;11.180;2023-11-19T07:37:38;0.30;;;0.30;;
11283;SDS011;5698;47.332;11.180;2023-11-19T07:40:07;0.30;;;0.30;;
11283;SDS011;5698;47.332;11.180;2023-11-19T07:42:36;0.30;;;0.30;;
11283;SDS011;5698;47.332;11.180;2023-11-19T07:45:03;0.40;;;0.40;;
11283;SDS011;5698;47.332;11.180;2023-11-19T07:47:32;0.40;;;0.40;;
11283;SDS011;5698;47.332;11.180;2023-11-19T07:49:59;0.43;;;0.43;;
11283;SDS011;5698;47.332;11.180;2023-11-19T07:52:26;0.37;;;0.37;;
11283;SDS011;5698;47.332;11.180;2023-11-19T07:54:54;0.47;;;0.30;;
11283;SDS011;5698;47.332;11.180;2023-11-19T07:57:22;0.30;;;0.30;;
11283;SDS011;5698;47.332;11.180;2023-11-19T07:59:52;0.30;;;0.30;;
11283;SDS011;5698;47.332;11.180;2023-11-19T08:02:19;0.40;;;0.40;;
11283;SDS011;5698;47.332;11.180;2023-11-19T08:04:46;0.50;;;0.50;;
11283;SDS011;5698;47.332;11.180;2023-11-19T08:07:16;0.50;;;0.50;;
11283;SDS011;5698;47.332;11.180;2023-11-19T08:09:44;0.30;;;0.30;;
11283;SDS011;5698;47.332;11.180;2023-11-19T08:12:10;0.43;;;0.43;;
11283;SDS011;5698;47.332;11.180;2023-11-19T08:14:41;0.30;;;0.30;;
11283;SDS011;5698;47.332;11.180;2023-11-19T08:17:08;0.30;;;0.30;;
11283;SDS011;5698;47.332;11.180;2023-11-19T08:19:35;0.40;;;0.40;;
11283;SDS011;5698;47.332;11.180;2023-11-19T08:22:02;0.30;;;0.30;;
11283;SDS011;5698;47.332;11.180;2023-11-19T08:24:29;0.30;;;0.30;;
11283;SDS011;5698;47.332;11.180;2023-11-19T08:26:56;0.30;;;0.30;;
11283;SDS011;5698;47.332;11.180;2023-11-19T08:29:23;0.37;;;0.37;;
11283;SDS011;5698;47.332;11.180;2023-11-19T08:31:51;0.30;;;0.30;;
11283;SDS011;5698;47.332;11.180;2023-11-19T08:34:18;0.30;;;0.30;;
11283;SDS011;5698;47.332;11.180;2023-11-19T08:36:45;0.40;;;0.40;;
11283;SDS011;5698;47.332;11.180;2023-11-19T08:39:12;0.30;;;0.30;;
11283;SDS011;5698;47.332;11.180;2023-11-19T08:41:39;0.30;;;0.30;;
11283;SDS011;5698;47.332;11.180;2023-11-19T08:44:06;0.20;;;0.20;;
11283;SDS011;5698;47.332;11.180;2023-11-19T08:46:33;0.20;;;0.20;;
11283;SDS011;5698;47.332;11.180;2023-11-19T08:49:02;0.20;;;0.20;;
11283;SDS011;5698;47.332;11.180;2023-11-19T08:51:28;0.30;;;0.30;;
11283;SDS011;5698;47.332;11.180;2023-11-19T08:53:55;0.30;;;0.30;;
11283;SDS011;5698;47.332;11.180;2023-11-19T08:56:22;0.27;;;0.27;;
11283;SDS011;5698;47.332;11.180;2023-11-19T08:58:49;0.30;;;0.30;;
11283;SDS011;5698;47.332;11.180;2023-11-19T09:01:16;0.30;;;0.30;;
11283;SDS011;5698;47.332;11.180;2023-11-19T09:03:43;1.27;;;0.90;;
11283;SDS011;5698;47.332;11.180;2023-11-19T09:06:11;2.30;;;0.60;;
11283;SDS011;5698;47.332;11.180;2023-11-19T09:08:38;0.40;;;0.40;;
11283;SDS011;5698;47.332;11.180;2023-11-19T09:11:06;1.60;;;0.30;;
11283;SDS011;5698;47.332;11.180;2023-11-19T09:13:34;0.27;;;0.27;;
11283;SDS011;5698;47.332;11.180;2023-11-19T09:16:01;0.40;;;0.40;;
11283;SDS011;5698;47.332;11.180;2023-11-19T09:18:28;0.40;;;0.40;;
11283;SDS011;5698;47.332;11.180;2023-11-19T09:20:55;0.33;;;0.33;;
11283;SDS011;5698;47.332;11.180;2023-11-19T09:23:24;0.40;;;0.40;;
11283;SDS011;5698;47.332;11.180;2023-11-19T09:25:50;0.60;;;0.60;;
11283;SDS011;5698;47.332;11.180;2023-11-19T09:28:17;0.53;;;0.53;;
11283;SDS011;5698;47.332;11.180;2023-11-19T09:30:44;0.50;;;0.50;;
11283;SDS011;5698;47.332;11.180;2023-11-19T09:33:11;1.97;;;1.77;;
11283;SDS011;5698;47.332;11.180;2023-11-19T09:35:38;1.30;;;1.20;;
11283;SDS011;5698;47.332;11.180;2023-11-19T09:38:05;1.53;;;1.27;;
11283;SDS011;5698;47.332;11.180;2023-11-19T09:40:34;1.20;;;1.10;;
11283;SDS011;5698;47.332;11.180;2023-11-19T09:43:01;1.20;;;0.80;;
11283;SDS011;5698;47.332;11.180;2023-11-19T09:45:28;1.20;;;1.03;;
11283;SDS011;5698;47.332;11.180;2023-11-19T09:47:59;1.17;;;0.60;;
11283;SDS011;5698;47.332;11.180;2023-11-19T09:50:28;1.67;;;0.90;;
11283;SDS011;5698;47.332;11.180;2023-11-19T09:52:55;1.30;;;1.20;;
11283;SDS011;5698;47.332;11.180;2023-11-19T09:55:22;1.30;;;1.20;;
11283;SDS011;5698;47.332;11.180;2023-11-19T09:57:50;1.30;;;1.20;;
11283;SDS011;5698;47.332;11.180;2023-11-19T10:00:19;0.60;;;0.60;;
11283;SDS011;5698;47.332;11.180;2023-11-19T10:02:47;1.10;;;0.60;;
11283;SDS011;5698;47.332;11.180;2023-11-19T10:05:16;1.03;;;0.80;;
11283;SDS011;5698;47.332;11.180;2023-11-19T10:07:43;0.70;;;0.70;;
11283;SDS011;5698;47.332;11.180;2023-11-19T10:10:10;0.90;;;0.70;;
11283;SDS011;5698;47.332;11.180;2023-11-19T10:12:43;0.63;;;0.63;;
11283;SDS011;5698;47.332;11.180;2023-11-19T10:15:13;0.40;;;0.40;;
11283;SDS011;5698;47.332;11.180;2023-11-19T10:17:46;0.40;;;0.40;;
11283;SDS011;5698;47.332;11.180;2023-11-19T10:20:13;0.67;;;0.50;;
11283;SDS011;5698;47.332;11.180;2023-11-19T10:22:40;0.50;;;0.50;;
11283;SDS011;5698;47.332;11.180;2023-11-19T10:25:10;0.60;;;0.60;;
11283;SDS011;5698;47.332;11.180;2023-11-19T10:27:48;0.40;;;0.40;;
11283;SDS011;5698;47.332;11.180;2023-11-19T10:30:18;0.30;;;0.30;;
11283;SDS011;5698;47.332;11.180;2023-11-19T10:32:49;0.70;;;0.40;;
11283;SDS011;5698;47.332;11.180;2023-11-19T10:35:30;0.30;;;0.30;;
11283;SDS011;5698;47.332;11.180;2023-11-19T10:37:58;0.30;;;0.30;;
11283;SDS011;5698;47.332;11.180;2023-11-19T10:40:37;0.43;;;0.43;;
11283;SDS011;5698;47.332;11.180;2023-11-19T10:43:05;0.30;;;0.30;;
11283;SDS011;5698;47.332;11.180;2023-11-19T10:45:34;0.30;;;0.30;;
11283;SDS011;5698;47.332;11.180;2023-11-19T10:48:01;0.30;;;0.30;;
11283;SDS011;5698;47.332;11.180;2023-11-19T10:50:31;0.30;;;0.30;;
11283;SDS011;5698;47.332;11.180;2023-11-19T10:52:58;0.40;;;0.40;;
11283;SDS011;5698;47.332;11.180;2023-11-19T10:55:27;0.40;;;0.40;;
11283;SDS011;5698;47.332;11.180;2023-11-19T10:57:58;0.33;;;0.33;;
11283;SDS011;5698;47.332;11.180;2023-11-19T11:00:28;0.20;;;0.20;;
11283;SDS011;5698;47.332;11.180;2023-11-19T11:03:01;0.30;;;0.30;;
11283;SDS011;5698;47.332;11.180;2023-11-19T11:05:32;0.40;;;0.40;;
11283;SDS011;5698;47.332;11.180;2023-11-19T11:08:00;0.50;;;0.50;;
11283;SDS011;5698;47.332;11.180;2023-11-19T11:10:28;0.37;;;0.37;;
11283;SDS011;5698;47.332;11.180;2023-11-19T11:13:01;0.30;;;0.30;;
11283;SDS011;5698;47.332;11.180;2023-11-19T11:15:30;0.40;;;0.40;;
11283;SDS011;5698;47.332;11.180;2023-11-19T11:17:59;0.50;;;0.50;;
11283;SDS011;5698;47.332;11.180;2023-11-19T11:20:28;0.57;;;0.57;;
11283;SDS011;5698;47.332;11.180;2023-11-19T11:23:02;0.70;;;0.60;;
11283;SDS011;5698;47.332;11.180;2023-11-19T11:25:50;0.70;;;0.60;;
11283;SDS011;5698;47.332;11.180;2023-11-19T11:28:28;0.93;;;0.50;;
11283;SDS011;5698;47.332;11.180;2023-11-19T11:31:08;0.50;;;0.50;;
11283;SDS011;5698;47.332;11.180;2023-11-19T11:33:59;0.77;;;0.50;;
11283;SDS011;5698;47.332;11.180;2023-11-19T11:36:36;0.40;;;0.40;;
11283;SDS011;5698;47.332;11.180;2023-11-19T11:39:11;0.23;;;0.23;;
11283;SDS011;5698;47.332;11.180;2023-11-19T11:41:40;2.33;;;1.40;;
11283;SDS011;5698;47.332;11.180;2023-11-19T11:44:07;1.50;;;1.30;;
11283;SDS011;5698;47.332;11.180;2023-11-19T11:49:29;2.90;;;2.03;;
11283;SDS011;5698;47.332;11.180;2023-11-19T11:52:01;2.40;;;2.07;;
11283;SDS011;5698;47.332;11.180;2023-11-19T11:54:32;1.50;;;1.40;;
11283;SDS011;5698;47.332;11.180;2023-11-19T11:57:01;1.10;;;1.00;;
11283;SDS011;5698;47.332;11.180;2023-11-19T11:59:34;1.30;;;1.20;;
11283;SDS011;5698;47.332;11.180;2023-11-19T12:02:03;0.80;;;0.80;;
11283;SDS011;5698;47.332;11.180;2023-11-19T12:04:35;0.80;;;0.80;;
11283;SDS011;5698;47.332;11.180;2023-11-19T12:07:03;0.77;;;0.57;;
11283;SDS011;5698;47.332;11.180;2023-11-19T12:09:31;0.57;;;0.57;;
11283;SDS011;5698;47.332;11.180;2023-11-19T12:12:07;0.40;;;0.40;;
11283;SDS011;5698;47.332;11.180;2023-11-19T12:17:48;0.77;;;0.77;;
11283;SDS011;5698;47.332;11.180;2023-11-19T12:20:17;0.97;;;0.87;;
11283;SDS011;5698;47.332;11.180;2023-11-19T12:22:46;1.00;;;1.00;;
11283;SDS011;5698;47.332;11.180;2023-11-19T12:25:14;0.80;;;0.80;;
11283;SDS011;5698;47.332;11.180;2023-11-19T12:27:43;0.50;;;0.50;;
11283;SDS011;5698;47.332;11.180;2023-11-19T12:30:11;0.40;;;0.40;;
11283;SDS011;5698;47.332;11.180;2023-11-19T12:32:39;0.30;;;0.30;;
11283;SDS011;5698;47.332;11.180;2023-11-19T12:35:07;0.70;;;0.70;;
11283;SDS011;5698;47.332;11.180;2023-11-19T12:37:44;1.10;;;1.10;;
11283;SDS011;5698;47.332;11.180;2023-11-19T12:40:13;0.90;;;0.90;;
11283;SDS011;5698;47.332;11.180;2023-11-19T12:42:41;0.50;;;0.50;;
11283;SDS011;5698;47.332;11.180;2023-11-19T12:45:08;0.40;;;0.40;;
11283;SDS011;5698;47.332;11.180;2023-11-19T12:47:37;0.93;;;0.40;;
11283;SDS011;5698;47.332;11.180;2023-11-19T12:50:04;0.20;;;0.20;;
11283;SDS011;5698;47.332;11.180;2023-11-19T12:52:33;0.47;;;0.47;;
11283;SDS011;5698;47.332;11.180;2023-11-19T12:55:01;0.50;;;0.50;;
11283;SDS011;5698;47.332;11.180;2023-11-19T12:57:37;0.83;;;0.63;;
11283;SDS011;5698;47.332;11.180;2023-11-19T13:00:06;0.90;;;0.90;;
11283;SDS011;5698;47.332;11.180;2023-11-19T13:02:46;1.00;;;0.90;;
11283;SDS011;5698;47.332;11.180;2023-11-19T13:05:21;0.50;;;0.50;;
11283;SDS011;5698;47.332;11.180;2023-11-19T13:07:57;0.50;;;0.50;;
11283;SDS011;5698;47.332;11.180;2023-11-19T13:10:27;0.50;;;0.50;;
11283;SDS011;5698;47.332;11.180;2023-11-19T13:13:01;0.60;;;0.60;;
11283;SDS011;5698;47.332;11.180;2023-11-19T13:15:29;0.40;;;0.40;;
11283;SDS011;5698;47.332;11.180;2023-11-19T13:17:55;0.30;;;0.30;;
11283;SDS011;5698;47.332;11.180;2023-11-19T13:20:22;0.40;;;0.40;;
11283;SDS011;5698;47.332;11.180;2023-11-19T13:22:56;0.50;;;0.50;;
11283;SDS011;5698;47.332;11.180;2023-11-19T13:25:23;0.50;;;0.50;;
11283;SDS011;5698;47.332;11.180;2023-11-19T13:27:52;0.93;;;0.60;;
11283;SDS011;5698;47.332;11.180;2023-11-19T13:30:19;1.00;;;0.97;;
11283;SDS011;5698;47.332;11.180;2023-11-19T13:32:47;0.70;;;0.70;;
11283;SDS011;5698;47.332;11.180;2023-11-19T13:35:14;0.70;;;0.70;;
11283;SDS011;5698;47.332;11.180;2023-11-19T13:37:42;0.53;;;0.53;;
11283;SDS011;5698;47.332;11.180;2023-11-19T13:40:09;1.57;;;1.30;;
11283;SDS011;5698;47.332;11.180;2023-11-19T13:42:39;0.90;;;0.90;;
11283;SDS011;5698;47.332;11.180;2023-11-19T13:45:09;0.60;;;0.60;;
11283;SDS011;5698;47.332;11.180;2023-11-19T13:47:39;0.53;;;0.53;;
11283;SDS011;5698;47.332;11.180;2023-11-19T13:50:08;0.47;;;0.47;;
11283;SDS011;5698;47.332;11.180;2023-11-19T13:52:35;0.73;;;0.43;;
11283;SDS011;5698;47.332;11.180;2023-11-19T13:55:05;0.43;;;0.43;;
11283;SDS011;5698;47.332;11.180;2023-11-19T13:57:33;0.50;;;0.50;;
11283;SDS011;5698;47.332;11.180;2023-11-19T14:00:00;0.40;;;0.40;;
11283;SDS011;5698;47.332;11.180;2023-11-19T14:02:31;0.53;;;0.47;;
11283;SDS011;5698;47.332;11.180;2023-11-19T14:04:58;0.50;;;0.50;;
11283;SDS011;5698;47.332;11.180;2023-11-19T14:07:25;0.30;;;0.30;;
11283;SDS011;5698;47.332;11.180;2023-11-19T14:09:52;0.30;;;0.30;;
11283;SDS011;5698;47.332;11.180;2023-11-19T14:12:19;0.40;;;0.40;;
11283;SDS011;5698;47.332;11.180;2023-11-19T14:14:47;0.40;;;0.40;;
11283;SDS011;5698;47.332;11.180;2023-11-19T14:17:14;0.63;;;0.63;;
11283;SDS011;5698;47.332;11.180;2023-11-19T14:19:43;0.50;;;0.50;;
11283;SDS011;5698;47.332;11.180;2023-11-19T14:22:10;0.87;;;0.60;;
11283;SDS011;5698;47.332;11.180;2023-11-19T14:24:37;0.57;;;0.57;;
11283;SDS011;5698;47.332;11.180;2023-11-19T14:27:05;0.70;;;0.70;;
11283;SDS011;5698;47.332;11.180;2023-11-19T14:29:32;0.40;;;0.40;;
11283;SDS011;5698;47.332;11.180;2023-11-19T14:32:00;0.60;;;0.60;;
11283;SDS011;5698;47.332;11.180;2023-11-19T14:34:27;0.40;;;0.40;;
11283;SDS011;5698;47.332;11.180;2023-11-19T14:36:56;0.40;;;0.40;;
11283;SDS011;5698;47.332;11.180;2023-11-19T14:39:23;0.53;;;0.47;;
11283;SDS011;5698;47.332;11.180;2023-11-19T14:41:50;0.40;;;0.40;;
11283;SDS011;5698;47.332;11.180;2023-11-19T14:44:18;0.30;;;0.30;;
11283;SDS011;5698;47.332;11.180;2023-11-19T14:46:46;0.30;;;0.30;;
11283;SDS011;5698;47.332;11.180;2023-11-19T14:49:13;0.40;;;0.40;;
11283;SDS011;5698;47.332;11.180;2023-11-19T14:51:40;0.60;;;0.47;;
11283;SDS011;5698;47.332;11.180;2023-11-19T14:54:08;0.40;;;0.40;;
11283;SDS011;5698;47.332;11.180;2023-11-19T14:56:35;0.47;;;0.47;;
11283;SDS011;5698;47.332;11.180;2023-11-19T14:59:03;0.40;;;0.40;;
11283;SDS011;5698;47.332;11.180;2023-11-19T15:01:30;0.37;;;0.37;;